Time;durP1;ratioP1;P1;durP2;ratioP2;P2;SDS_P1;SDS_P2;PMS_P1;PMS_P2;Temp;Humidity;BMP_temperature;BMP_pressure;BME280_temperature;BME280_humidity;BME280_pressure;Samples;Min_cycle;Max_cycle;Signal;HPM_P1;HPM_P2
2022/08/01 00:01:38;;;;;;;6.88;3.75;;;20.20;93.50;;;;;;5067421;28;20066;-73
2022/08/01 00:04:04;;;;;;;4.70;3.13;;;20.20;93.50;;;;;;5068436;28;20111;-71
2022/08/01 00:06:30;;;;;;;8.20;3.78;;;20.20;93.50;;;;;;5048524;28;20470;-72
2022/08/01 00:08:56;;;;;;;5.60;3.90;;;20.20;93.70;;;;;;5067927;28;20037;-69
2022/08/01 00:11:22;;;;;;;6.68;3.55;;;20.20;93.70;;;;;;5067125;28;20380;-70
2022/08/01 00:13:47;;;;;;;8.15;3.35;;;20.20;93.70;;;;;;5068423;28;20100;-71
2022/08/01 00:16:13;;;;;;;6.50;3.80;;;20.10;93.70;;;;;;5066250;28;20058;-70
2022/08/01 00:18:39;;;;;;;4.95;3.45;;;20.20;93.60;;;;;;5067712;28;20044;-72
2022/08/01 00:21:04;;;;;;;7.25;3.65;;;20.20;93.40;;;;;;5068180;28;20032;-71
2022/08/01 00:23:31;;;;;;;7.25;4.15;;;20.20;93.60;;;;;;5066843;28;20074;-72
2022/08/01 00:25:56;;;;;;;7.03;3.10;;;20.20;93.50;;;;;;5067450;28;20040;-71
2022/08/01 00:28:22;;;;;;;3.67;3.10;;;20.20;93.70;;;;;;5067526;28;20043;-68
2022/08/01 00:30:48;;;;;;;5.78;3.80;;;20.20;93.60;;;;;;5066777;28;20036;-70
2022/08/01 00:33:13;;;;;;;5.82;3.40;;;20.20;93.60;;;;;;5065586;28;20082;-72
2022/08/01 00:35:39;;;;;;;5.18;3.65;;;20.10;93.60;;;;;;5050107;28;20059;-71
2022/08/01 00:38:05;;;;;;;8.82;4.18;;;20.10;93.80;;;;;;5067497;28;20036;-72
2022/08/01 00:40:30;;;;;;;10.05;3.28;;;20.10;93.80;;;;;;5066771;28;20496;-70
2022/08/01 00:42:56;;;;;;;5.43;3.42;;;20.00;93.70;;;;;;5067389;28;20059;-71
2022/08/01 00:45:21;;;;;;;11.55;3.47;;;20.00;93.80;;;;;;5065605;28;20479;-67
2022/08/01 00:47:47;;;;;;;5.38;3.45;;;20.00;93.90;;;;;;5068044;28;20417;-70
2022/08/01 00:50:13;;;;;;;6.07;3.47;;;20.00;93.80;;;;;;5066667;28;20070;-70
2022/08/01 00:52:40;;;;;;;5.68;3.40;;;20.00;94.00;;;;;;5066063;28;20085;-70
2022/08/01 00:55:07;;;;;;;9.27;3.63;;;19.90;94.20;;;;;;5068115;28;20094;-72
2022/08/01 00:57:33;;;;;;;7.70;3.55;;;19.80;94.30;;;;;;5066672;28;20028;-72
2022/08/01 00:59:59;;;;;;;7.57;3.53;;;19.80;94.40;;;;;;5068031;28;20474;-73
2022/08/01 01:02:24;;;;;;;8.25;3.63;;;19.70;94.60;;;;;;5065332;28;20111;-68
2022/08/01 01:04:50;;;;;;;5.63;3.70;;;19.70;94.70;;;;;;5066241;28;20031;-72
2022/08/01 01:07:39;;;;;;;6.55;3.58;;;19.60;94.90;;;;;;5051691;28;20512;-70
2022/08/01 01:10:24;;;;;;;7.07;3.47;;;19.50;95.00;;;;;;5067378;28;20129;-72
2022/08/01 01:12:54;;;;;;;6.78;3.70;;;19.50;95.20;;;;;;5065454;28;20477;-71
2022/08/01 01:15:28;;;;;;;4.70;3.33;;;19.40;95.20;;;;;;5067719;28;20029;-70
2022/08/01 01:18:09;;;;;;;5.75;3.90;;;19.40;95.40;;;;;;5066830;28;20048;-71
2022/08/01 01:20:38;;;;;;;5.25;3.53;;;19.40;95.30;;;;;;5068444;28;20481;-72
2022/08/01 01:23:44;;;;;;;5.57;3.50;;;19.40;95.60;;;;;;5070792;28;20035;-72
2022/08/01 01:26:28;;;;;;;7.07;3.70;;;19.40;95.90;;;;;;5012987;28;20069;-71
2022/08/01 01:29:15;;;;;;;6.03;3.60;;;19.50;95.60;;;;;;5068996;28;20040;-70
2022/08/01 01:31:48;;;;;;;8.23;3.67;;;19.50;95.50;;;;;;5069665;28;20051;-70
2022/08/01 01:34:17;;;;;;;5.60;3.80;;;19.40;96.00;;;;;;5071363;28;20029;-73
2022/08/01 01:36:45;;;;;;;5.82;4.00;;;19.40;96.00;;;;;;5069344;28;20857;-71
2022/08/01 01:39:13;;;;;;;10.45;3.90;;;19.20;96.30;;;;;;5070530;28;20032;-70
2022/08/01 01:41:41;;;;;;;5.82;4.22;;;19.10;96.70;;;;;;5069059;28;20113;-72
2022/08/01 01:44:07;;;;;;;6.45;3.92;;;18.90;97.30;;;;;;5071474;28;20475;-73
2022/08/01 01:46:35;;;;;;;6.70;4.18;;;18.70;98.40;;;;;;5070135;28;20032;-71
2022/08/01 01:49:02;;;;;;;4.88;3.75;;;18.70;98.40;;;;;;5070239;28;20029;-72
2022/08/01 01:51:28;;;;;;;5.32;3.60;;;18.60;98.30;;;;;;5070120;28;20127;-68
2022/08/01 01:53:56;;;;;;;4.72;3.47;;;18.60;98.10;;;;;;5070701;28;20155;-71
2022/08/01 01:56:23;;;;;;;6.82;3.60;;;18.60;97.90;;;;;;5066960;28;20107;-71
2022/08/01 01:58:53;;;;;;;6.95;3.75;;;18.80;97.50;;;;;;5068942;28;20471;-72
2022/08/01 02:01:21;;;;;;;9.50;4.55;;;18.90;97.40;;;;;;5070943;28;20055;-72
2022/08/01 02:03:48;;;;;;;8.18;3.47;;;19.00;97.30;;;;;;5070026;28;20031;-70
2022/08/01 02:06:15;;;;;;;6.18;3.83;;;19.00;97.00;;;;;;5069025;28;20513;-72
2022/08/01 02:08:43;;;;;;;6.95;3.92;;;19.00;97.00;;;;;;5066239;28;20097;-71
2022/08/01 02:11:19;;;;;;;6.38;3.95;;;19.10;97.00;;;;;;5069690;28;20072;-71
2022/08/01 02:13:54;;;;;;;5.63;3.65;;;19.10;97.00;;;;;;5070396;28;20025;-72
2022/08/01 02:16:23;;;;;;;6.22;3.75;;;19.10;97.20;;;;;;5069513;28;20137;-69
2022/08/01 02:18:49;;;;;;;11.27;4.10;;;19.10;97.40;;;;;;5069653;28;20200;-72
2022/08/01 02:21:23;;;;;;;7.78;4.05;;;19.00;97.60;;;;;;5068945;28;20372;-71
2022/08/01 02:23:49;;;;;;;6.10;3.83;;;18.90;97.70;;;;;;5050330;28;20033;-72
2022/08/01 02:26:18;;;;;;;9.20;3.78;;;18.90;97.60;;;;;;5064080;28;20028;-71
2022/08/01 02:28:50;;;;;;;8.57;3.92;;;18.90;97.50;;;;;;5066058;28;20024;-70
2022/08/01 02:31:20;;;;;;;7.93;4.28;;;18.90;97.50;;;;;;5068715;28;20043;-71
2022/08/01 02:33:54;;;;;;;8.57;3.65;;;19.00;97.40;;;;;;5064116;28;20028;-71
2022/08/01 02:36:23;;;;;;;7.38;3.75;;;19.00;97.50;;;;;;5070039;28;20032;-72
2022/08/01 02:38:49;;;;;;;6.30;4.30;;;19.00;97.50;;;;;;5069707;28;20680;-71
2022/08/01 02:41:20;;;;;;;6.47;4.00;;;19.00;97.40;;;;;;5066465;28;20035;-71
2022/08/01 02:43:49;;;;;;;6.82;3.70;;;19.00;97.30;;;;;;5069187;28;20056;-73
2022/08/01 02:46:21;;;;;;;9.05;4.78;;;19.00;97.40;;;;;;5069703;28;20517;-71
2022/08/01 02:48:50;;;;;;;9.43;3.80;;;19.00;97.40;;;;;;5051133;28;20046;-70
2022/08/01 02:51:17;;;;;;;5.10;3.72;;;18.90;97.90;;;;;;5069159;28;20036;-71
2022/08/01 02:53:45;;;;;;;7.07;3.95;;;18.90;97.90;;;;;;5069973;28;20029;-72
2022/08/01 02:56:13;;;;;;;6.40;3.85;;;18.80;98.00;;;;;;5067325;28;20043;-72
2022/08/01 02:58:40;;;;;;;5.28;4.00;;;18.80;98.40;;;;;;5068189;28;20017;-70
2022/08/01 03:01:07;;;;;;;9.38;4.05;;;18.80;98.20;;;;;;5067660;28;20741;-70
2022/08/01 03:03:34;;;;;;;8.10;4.00;;;18.80;98.20;;;;;;5068845;28;20043;-70
2022/08/01 03:06:01;;;;;;;9.25;4.00;;;18.70;98.30;;;;;;5068566;28;20025;-73
2022/08/01 03:08:30;;;;;;;7.38;4.30;;;18.80;98.30;;;;;;5067963;28;20037;-70
2022/08/01 03:10:59;;;;;;;6.25;3.67;;;18.80;98.30;;;;;;5065262;28;20045;-68
2022/08/01 03:13:26;;;;;;;6.80;3.92;;;18.70;98.50;;;;;;5056437;28;20040;-71
2022/08/01 03:15:55;;;;;;;5.90;3.78;;;18.70;98.80;;;;;;5067569;28;20037;-70
2022/08/01 03:18:24;;;;;;;6.22;3.92;;;18.60;98.90;;;;;;5070262;28;20143;-70
2022/08/01 03:20:51;;;;;;;8.02;3.97;;;18.60;98.90;;;;;;5067875;28;20218;-71
2022/08/01 03:23:18;;;;;;;9.32;3.90;;;18.60;99.00;;;;;;5069016;28;20103;-70
2022/08/01 03:25:45;;;;;;;9.05;4.18;;;18.60;99.20;;;;;;5068852;28;20108;-71
2022/08/01 03:28:13;;;;;;;5.82;3.97;;;18.50;99.30;;;;;;5068067;28;20056;-70
2022/08/01 03:30:40;;;;;;;7.72;4.22;;;18.50;99.50;;;;;;5068751;28;20548;-71
2022/08/01 03:33:06;;;;;;;6.28;3.83;;;18.50;99.70;;;;;;5068686;28;20612;-70
2022/08/01 03:35:53;;;;;;;7.32;4.55;;;18.40;99.90;;;;;;5069330;28;20037;-70
2022/08/01 03:38:23;;;;;;;8.05;4.40;;;18.30;99.90;;;;;;5067783;28;20025;-71
2022/08/01 03:41:08;;;;;;;7.55;3.97;;;18.20;99.90;;;;;;5068247;28;20024;-70
2022/08/01 03:43:41;;;;;;;6.50;4.20;;;18.20;99.90;;;;;;5066515;28;20040;-69
2022/08/01 03:46:12;;;;;;;6.85;4.28;;;18.20;99.90;;;;;;5069004;28;20036;-71
2022/08/01 03:48:40;;;;;;;;;;;18.20;99.90;;;;;;5068573;28;20081;-71
2022/08/01 03:51:08;;;;;;;6.03;4.03;;;18.20;99.90;;;;;;5068656;28;19959;-70
2022/08/01 03:53:35;;;;;;;6.95;4.45;;;18.10;99.90;;;;;;5068840;28;20034;-69
2022/08/01 03:56:03;;;;;;;5.97;4.40;;;18.10;99.90;;;;;;5069467;28;20078;-70
2022/08/01 03:58:30;;;;;;;6.93;4.60;;;18.10;99.90;;;;;;5069274;28;20025;-70
2022/08/01 04:00:56;;;;;;;7.88;4.50;;;18.10;99.90;;;;;;5068560;28;20119;-72
2022/08/01 04:03:24;;;;;;;8.25;3.95;;;18.00;99.90;;;;;;5069206;28;20123;-71
2022/08/01 04:05:50;;;;;;;7.75;3.60;;;18.00;99.90;;;;;;5067826;28;20027;-69
2022/08/01 04:08:16;;;;;;;7.60;4.13;;;18.00;99.90;;;;;;5068591;28;20021;-70
2022/08/01 04:10:42;;;;;;;7.93;4.18;;;18.00;99.90;;;;;;5068451;28;20102;-72
2022/08/01 04:13:07;;;;;;;5.00;3.85;;;17.90;99.90;;;;;;5069120;28;20085;-71
2022/08/01 04:15:33;;;;;;;8.02;4.30;;;17.90;99.90;;;;;;5050618;28;20074;-71
2022/08/01 04:17:58;;;;;;;6.95;4.10;;;17.90;99.90;;;;;;5050462;28;20050;-69
2022/08/01 04:20:24;;;;;;;6.88;4.22;;;18.00;99.90;;;;;;5069215;28;20040;-71
2022/08/01 04:22:50;;;;;;;6.72;4.25;;;18.00;99.90;;;;;;5067329;28;20032;-70
2022/08/01 04:25:21;;;;;;;6.78;4.43;;;18.00;99.90;;;;;;5067983;28;20032;-70
2022/08/01 04:27:50;;;;;;;8.60;4.18;;;18.00;99.90;;;;;;5066378;28;20043;-72
2022/08/01 04:30:19;;;;;;;6.43;4.47;;;18.00;99.90;;;;;;5066987;28;20039;-71
2022/08/01 04:32:46;;;;;;;7.05;4.50;;;18.10;99.90;;;;;;5067188;28;20386;-71
2022/08/01 04:35:16;;;;;;;8.95;4.50;;;18.10;99.90;;;;;;5050359;28;20083;-71
2022/08/01 04:37:44;;;;;;;6.07;3.97;;;18.20;99.90;;;;;;5065603;28;20090;-70
2022/08/01 04:40:11;;;;;;;8.50;4.20;;;18.20;99.90;;;;;;5065413;28;20050;-69
2022/08/01 04:42:38;;;;;;;8.00;4.47;;;18.20;99.90;;;;;;5062491;28;20036;-69
2022/08/01 04:45:04;;;;;;;9.40;4.68;;;18.20;99.90;;;;;;5049463;28;20447;-72
2022/08/01 04:47:30;;;;;;;7.63;4.43;;;18.30;99.90;;;;;;5066549;28;20096;-73
2022/08/01 04:49:56;;;;;;;5.55;4.13;;;18.30;99.90;;;;;;5064516;28;20184;-71
2022/08/01 04:52:22;;;;;;;8.88;4.25;;;18.50;99.90;;;;;;5064869;28;20048;-70
2022/08/01 04:54:48;;;;;;;5.97;4.22;;;18.50;99.90;;;;;;5064586;28;20402;-72
2022/08/01 04:57:14;;;;;;;7.28;4.35;;;18.60;99.90;;;;;;5072606;28;20048;-71
2022/08/01 04:59:43;;;;;;;6.03;4.28;;;18.60;99.90;;;;;;5070508;28;20021;-71
2022/08/01 05:02:11;;;;;;;6.53;4.32;;;18.70;99.90;;;;;;5068819;28;20524;-71
2022/08/01 05:04:37;;;;;;;7.85;4.40;;;18.80;99.90;;;;;;5074746;28;20052;-70
2022/08/01 05:07:04;;;;;;;7.15;4.38;;;18.80;99.90;;;;;;5071252;28;20032;-71
2022/08/01 05:09:30;;;;;;;8.20;4.32;;;18.90;99.90;;;;;;5071692;28;20028;-72
2022/08/01 05:11:58;;;;;;;11.15;4.90;;;18.90;99.90;;;;;;5061440;28;20116;-72
2022/08/01 05:14:25;;;;;;;7.55;4.40;;;19.00;99.90;;;;;;5068320;28;20032;-71
2022/08/01 05:16:51;;;;;;;8.60;4.78;;;19.00;99.90;;;;;;5069384;28;20769;-71
2022/08/01 05:19:17;;;;;;;7.25;4.13;;;19.00;99.90;;;;;;5072363;28;20532;-70
2022/08/01 05:21:43;;;;;;;8.15;4.47;;;19.00;99.90;;;;;;5070146;28;20040;-70
2022/08/01 05:24:08;;;;;;;8.30;4.68;;;18.90;99.90;;;;;;5071925;28;20455;-70
2022/08/01 05:26:34;;;;;;;7.68;4.53;;;18.80;99.90;;;;;;5070475;28;20023;-72
2022/08/01 05:29:00;;;;;;;8.98;4.35;;;18.90;99.90;;;;;;5069938;28;20069;-72
2022/08/01 05:31:26;;;;;;;8.30;4.55;;;18.90;99.90;;;;;;5070511;28;20131;-71
2022/08/01 05:33:51;;;;;;;6.70;4.40;;;19.00;99.90;;;;;;5067838;28;20044;-71
2022/08/01 05:36:17;;;;;;;7.30;4.55;;;19.00;99.90;;;;;;5071182;28;20036;-71
2022/08/01 05:38:43;;;;;;;8.93;4.82;;;18.90;99.90;;;;;;5071107;28;20366;-71
2022/08/01 05:41:09;;;;;;;6.60;4.55;;;18.90;99.90;;;;;;5070225;28;20386;-73
2022/08/01 05:43:35;;;;;;;8.57;5.03;;;18.80;99.90;;;;;;5071060;28;20081;-73
2022/08/01 05:46:01;;;;;;;7.57;4.55;;;18.70;99.90;;;;;;5069043;28;20028;-71
2022/08/01 05:48:27;;;;;;;9.63;4.50;;;18.70;99.90;;;;;;5071444;28;20120;-72
2022/08/01 05:50:53;;;;;;;7.65;4.53;;;18.90;99.90;;;;;;5070203;28;20037;-73
2022/08/01 05:53:19;;;;;;;6.85;4.38;;;19.10;99.90;;;;;;5070571;28;20029;-72
2022/08/01 05:55:45;;;;;;;10.05;4.43;;;19.30;99.90;;;;;;5070778;28;20150;-73
2022/08/01 05:58:10;;;;;;;11.93;4.85;;;19.40;99.90;;;;;;5068432;28;20037;-72
2022/08/01 06:00:36;;;;;;;7.93;4.70;;;19.60;99.90;;;;;;5069977;28;20037;-72
2022/08/01 06:03:02;;;;;;;8.70;4.72;;;19.90;99.90;;;;;;5067666;28;20039;-72
2022/08/01 06:05:28;;;;;;;9.90;4.95;;;20.00;99.90;;;;;;5069627;28;20056;-72
2022/08/01 06:07:53;;;;;;;6.60;4.60;;;20.00;99.90;;;;;;5064368;28;20048;-72
2022/08/01 06:10:19;;;;;;;9.82;4.80;;;20.00;99.90;;;;;;5068071;28;20033;-70
2022/08/01 06:12:45;;;;;;;7.20;4.43;;;20.00;99.90;;;;;;5069399;28;20505;-72
2022/08/01 06:15:11;;;;;;;6.40;4.32;;;20.20;99.90;;;;;;5071682;28;20032;-74
2022/08/01 06:17:37;;;;;;;9.80;4.38;;;20.40;99.90;;;;;;5071200;28;20455;-71
2022/08/01 06:20:03;;;;;;;6.70;4.60;;;20.60;99.90;;;;;;5070284;28;20031;-72
2022/08/01 06:22:29;;;;;;;5.18;4.00;;;20.50;99.90;;;;;;5070995;28;20047;-73
2022/08/01 06:24:55;;;;;;;8.85;4.22;;;20.40;99.90;;;;;;5070445;28;20028;-73
2022/08/01 06:27:21;;;;;;;7.47;4.53;;;20.50;99.90;;;;;;5069655;28;20032;-72
2022/08/01 06:29:46;;;;;;;7.47;4.32;;;20.70;99.90;;;;;;5052256;28;20539;-70
2022/08/01 06:32:12;;;;;;;7.35;4.45;;;20.80;99.90;;;;;;5070762;28;20048;-72
2022/08/01 06:34:38;;;;;;;11.15;4.32;;;21.00;99.90;;;;;;5070420;28;20096;-71
2022/08/01 06:37:03;;;;;;;11.35;4.63;;;21.00;99.90;;;;;;5067704;28;20124;-72
2022/08/01 06:39:29;;;;;;;11.40;4.38;;;20.90;99.90;;;;;;5070795;28;20024;-73
2022/08/01 06:41:55;;;;;;;7.00;4.25;;;21.00;99.90;;;;;;5066292;28;20039;-73
2022/08/01 06:44:20;;;;;;;5.75;4.03;;;21.10;99.90;;;;;;5068504;28;20755;-72
2022/08/01 06:46:46;;;;;;;8.25;4.10;;;21.30;99.90;;;;;;5065794;28;20060;-70
2022/08/01 06:49:11;;;;;;;9.63;4.38;;;21.60;99.90;;;;;;5070536;28;20129;-74
2022/08/01 06:51:37;;;;;;;7.45;4.13;;;21.40;99.90;;;;;;5070624;28;20033;-70
2022/08/01 06:54:03;;;;;;;9.13;4.22;;;21.30;99.90;;;;;;5069254;28;20197;-72
2022/08/01 06:56:28;;;;;;;11.60;3.92;;;21.40;99.90;;;;;;5070501;28;20024;-72
2022/08/01 06:59:00;;;;;;;6.97;4.25;;;21.40;99.90;;;;;;5068462;28;20039;-72
2022/08/01 07:01:29;;;;;;;5.10;3.95;;;21.40;99.90;;;;;;5071672;28;20776;-73
2022/08/01 07:03:55;;;;;;;8.50;3.85;;;21.60;99.90;;;;;;5069639;28;20025;-73
2022/08/01 07:06:24;;;;;;;9.02;4.50;;;21.60;99.90;;;;;;5070044;28;20039;-73
2022/08/01 07:08:51;;;;;;;6.93;4.30;;;21.70;99.90;;;;;;5068839;28;20032;-72
2022/08/01 07:11:18;;;;;;;4.63;3.67;;;21.80;99.90;;;;;;5069348;28;20044;-72
2022/08/01 07:13:45;;;;;;;6.97;4.05;;;21.90;99.90;;;;;;5069859;28;20067;-70
2022/08/01 07:16:14;;;;;;;7.65;4.10;;;22.00;99.90;;;;;;5069136;28;20063;-73
2022/08/01 07:18:41;;;;;;;5.88;3.90;;;21.90;99.90;;;;;;5069182;28;20036;-74
2022/08/01 07:21:07;;;;;;;7.95;4.70;;;21.90;99.90;;;;;;5069358;28;20028;-72
2022/08/01 07:23:34;;;;;;;6.43;3.88;;;22.00;99.90;;;;;;5070034;28;20024;-74
2022/08/01 07:26:01;;;;;;;5.95;3.67;;;22.10;99.90;;;;;;5067992;28;20028;-73
2022/08/01 07:28:27;;;;;;;5.72;3.70;;;22.40;99.90;;;;;;5051857;28;20398;-71
2022/08/01 07:30:53;;;;;;;5.90;3.63;;;22.50;99.90;;;;;;5067761;28;20086;-71
2022/08/01 07:33:19;;;;;;;5.90;3.60;;;22.60;99.90;;;;;;5051381;28;20102;-71
2022/08/01 07:35:45;;;;;;;5.60;3.90;;;22.70;99.90;;;;;;5069773;28;20029;-70
2022/08/01 07:38:10;;;;;;;6.43;3.70;;;22.60;99.90;;;;;;5069559;28;20123;-72
2022/08/01 07:40:36;;;;;;;7.00;3.97;;;22.60;99.90;;;;;;5069546;28;20029;-73
2022/08/01 07:43:02;;;;;;;6.72;4.00;;;22.70;99.90;;;;;;5069064;28;20023;-73
2022/08/01 07:45:28;;;;;;;7.57;3.83;;;22.90;99.90;;;;;;5068885;28;20071;-71
2022/08/01 07:47:54;;;;;;;6.78;3.70;;;23.10;99.90;;;;;;5068704;28;20024;-71
2022/08/01 07:50:19;;;;;;;6.93;3.67;;;23.10;99.90;;;;;;5069554;28;20020;-74
2022/08/01 07:52:45;;;;;;;5.57;3.90;;;23.20;99.90;;;;;;5068907;28;20119;-71
2022/08/01 07:55:11;;;;;;;6.18;3.60;;;23.10;99.90;;;;;;5068899;28;20151;-73
2022/08/01 07:57:37;;;;;;;5.57;3.42;;;23.20;99.90;;;;;;5069492;28;20020;-77
2022/08/01 08:00:06;;;;;;;7.45;3.63;;;23.20;99.90;;;;;;5067812;28;20029;-73
2022/08/01 08:02:31;;;;;;;4.95;3.70;;;23.30;99.90;;;;;;5069453;28;20033;-75
2022/08/01 08:04:57;;;;;;;6.97;3.95;;;23.20;99.90;;;;;;5066017;28;20039;-72
2022/08/01 08:07:23;;;;;;;6.70;3.55;;;23.10;99.90;;;;;;5066987;28;20043;-76
2022/08/01 08:09:49;;;;;;;9.60;4.20;;;23.30;99.90;;;;;;5065391;28;20031;-70
2022/08/01 08:12:14;;;;;;;7.10;4.30;;;23.30;99.90;;;;;;5066946;28;20041;-75
2022/08/01 08:14:40;;;;;;;5.63;3.60;;;23.20;99.90;;;;;;5064701;28;20036;-74
2022/08/01 08:17:06;;;;;;;5.85;3.72;;;23.20;99.90;;;;;;5049360;28;20194;-73
2022/08/01 08:19:33;;;;;;;4.63;3.45;;;23.00;99.90;;;;;;5068093;28;20037;-73
2022/08/01 08:22:00;;;;;;;5.53;3.55;;;23.10;99.90;;;;;;5068282;28;20425;-74
2022/08/01 08:24:26;;;;;;;6.85;3.85;;;23.50;99.90;;;;;;5068813;28;20032;-76
2022/08/01 08:26:59;;;;;;;5.28;3.45;;;23.70;99.90;;;;;;5088112;28;20105;-71
2022/08/01 08:29:29;;;;;;;10.68;4.03;;;23.60;99.90;;;;;;5072341;28;20040;-76
2022/08/01 08:31:55;;;;;;;4.87;3.37;;;23.60;99.90;;;;;;5066854;28;20047;-71
2022/08/01 08:34:20;;;;;;;6.90;3.50;;;23.60;99.90;;;;;;5058603;28;20028;-75
2022/08/01 08:36:47;;;;;;;5.75;3.42;;;23.60;99.90;;;;;;5068771;28;20490;-73
2022/08/01 08:39:12;;;;;;;5.55;3.50;;;23.80;99.90;;;;;;5067636;28;20497;-74
2022/08/01 08:41:38;;;;;;;6.90;3.72;;;23.70;99.90;;;;;;5068035;28;20036;-75
2022/08/01 08:44:05;;;;;;;5.80;3.33;;;23.60;99.90;;;;;;5063326;28;20024;-69
2022/08/01 08:46:33;;;;;;;4.93;3.00;;;23.70;99.50;;;;;;5046385;28;20031;-71
2022/08/01 08:49:00;;;;;;;4.75;3.08;;;23.60;99.70;;;;;;5047613;28;20029;-71
2022/08/01 08:51:27;;;;;;;3.10;2.70;;;23.50;99.90;;;;;;5053265;28;20182;-69
2022/08/01 08:53:57;;;;;;;4.97;3.30;;;23.50;99.90;;;;;;5066234;28;20111;-69
2022/08/01 08:56:29;;;;;;;6.78;2.95;;;23.60;99.90;;;;;;5041825;28;20035;-72
2022/08/01 08:58:55;;;;;;;6.28;3.28;;;23.60;99.80;;;;;;5064993;28;20675;-71
2022/08/01 09:01:21;;;;;;;3.67;2.47;;;23.50;99.90;;;;;;5060508;28;20051;-72
2022/08/01 09:03:47;;;;;;;3.30;2.75;;;23.50;99.90;;;;;;5064074;28;20060;-74
2022/08/01 09:06:13;;;;;;;8.35;3.10;;;23.70;99.40;;;;;;5063252;28;20869;-74
2022/08/01 09:08:40;;;;;;;3.45;2.60;;;23.80;99.60;;;;;;5062327;28;20805;-71
2022/08/01 09:11:06;;;;;;;4.20;2.55;;;23.80;99.70;;;;;;5051670;28;20143;-69
2022/08/01 09:13:32;;;;;;;4.32;2.85;;;23.80;99.90;;;;;;5051266;28;20048;-70
2022/08/01 09:16:01;;;;;;;3.70;2.70;;;23.80;99.80;;;;;;5045770;28;20068;-72
2022/08/01 09:18:33;;;;;;;3.85;2.67;;;23.90;99.00;;;;;;5043701;28;20045;-72
2022/08/01 09:21:09;;;;;;;5.75;2.22;;;23.80;98.80;;;;;;5047184;28;20028;-73
2022/08/01 09:23:54;;;;;;;6.45;3.08;;;23.80;99.40;;;;;;5046218;28;20028;-71
2022/08/01 09:26:33;;;;;;;6.38;2.70;;;24.20;99.80;;;;;;5044715;28;20114;-73
2022/08/01 09:29:00;;;;;;;6.18;2.97;;;24.60;97.50;;;;;;5046662;28;20056;-69
2022/08/01 09:31:28;;;;;;;6.05;2.55;;;24.70;98.70;;;;;;5045690;28;20947;-71
2022/08/01 09:33:56;;;;;;;4.00;2.63;;;24.80;98.50;;;;;;5046506;28;20040;-68
2022/08/01 09:36:42;;;;;;;7.20;2.67;;;24.90;96.90;;;;;;5062021;28;20036;-72
2022/08/01 09:39:19;;;;;;;4.78;2.70;;;25.30;96.40;;;;;;5053793;28;20050;-71
2022/08/01 09:41:46;;;;;;;4.97;2.58;;;25.30;97.30;;;;;;5052119;28;20033;-71
2022/08/01 09:44:12;;;;;;;4.90;2.60;;;25.50;97.00;;;;;;5042926;28;20623;-69
2022/08/01 09:46:49;;;;;;;3.90;2.60;;;25.80;96.90;;;;;;5047126;28;20587;-69
2022/08/01 09:49:27;;;;;;;3.88;2.72;;;26.20;96.20;;;;;;5044869;28;20131;-70
2022/08/01 09:51:53;;;;;;;6.28;2.53;;;26.40;95.40;;;;;;5000253;28;20058;-69
2022/08/01 09:54:29;;;;;;;6.85;2.22;;;26.40;93.60;;;;;;4969476;28;20088;-70
2022/08/01 09:57:12;;;;;;;3.30;2.45;;;26.40;93.60;;;;;;4983189;28;20040;-70
2022/08/01 09:59:43;;;;;;;5.13;2.00;;;26.10;94.10;;;;;;4948663;28;20053;-69
2022/08/01 10:02:13;;;;;;;5.25;2.10;;;26.20;92.80;;;;;;4979528;28;20043;-68
2022/08/01 10:04:46;;;;;;;3.53;1.90;;;26.20;93.10;;;;;;4977853;28;20022;-71
2022/08/01 10:07:13;;;;;;;9.75;2.20;;;26.70;92.20;;;;;;4969199;28;20077;-71
2022/08/01 10:09:39;;;;;;;2.88;2.10;;;26.50;92.40;;;;;;4981620;28;20353;-69
2022/08/01 10:12:05;;;;;;;4.28;2.35;;;26.20;92.10;;;;;;5004950;28;21414;-69
2022/08/01 10:14:31;;;;;;;2.85;2.28;;;26.00;92.40;;;;;;4993932;28;20161;-70
2022/08/01 10:16:59;;;;;;;4.07;2.22;;;25.80;92.40;;;;;;5003019;28;21741;-70
2022/08/01 10:19:28;;;;;;;3.40;2.30;;;25.60;93.10;;;;;;4993684;28;20033;-69
2022/08/01 10:21:55;;;;;;;6.22;2.40;;;25.50;94.00;;;;;;4997535;28;20061;-71
2022/08/01 10:24:22;;;;;;;3.40;2.47;;;25.50;93.30;;;;;;5008256;28;20411;-74
2022/08/01 10:26:51;;;;;;;3.35;2.63;;;25.80;93.10;;;;;;5018745;28;20105;-70
2022/08/01 10:29:18;;;;;;;3.80;2.50;;;26.30;92.70;;;;;;5003130;28;20032;-70
2022/08/01 10:31:45;;;;;;;3.70;2.53;;;26.30;91.60;;;;;;5006027;28;20026;-70
2022/08/01 10:34:15;;;;;;;4.45;2.50;;;26.10;92.50;;;;;;5004345;28;20496;-71
2022/08/01 10:36:42;;;;;;;5.57;2.78;;;25.90;92.50;;;;;;5003486;28;20072;-72
2022/08/01 10:39:11;;;;;;;4.85;2.85;;;25.90;94.00;;;;;;4993357;28;20346;-71
2022/08/01 10:41:38;;;;;;;3.83;2.80;;;25.90;92.60;;;;;;4999853;28;20837;-72
2022/08/01 10:44:07;;;;;;;4.20;3.03;;;25.90;92.50;;;;;;5009186;28;20032;-69
2022/08/01 10:46:38;;;;;;;6.10;2.63;;;26.10;92.40;;;;;;5007529;28;20534;-70
2022/08/01 10:49:17;;;;;;;3.97;2.63;;;26.40;92.90;;;;;;5013385;28;20128;-71
2022/08/01 10:51:43;;;;;;;3.17;2.75;;;26.70;92.40;;;;;;5001714;28;20053;-70
2022/08/01 10:54:11;;;;;;;5.82;2.60;;;26.90;92.80;;;;;;4997243;28;20053;-72
2022/08/01 10:56:46;;;;;;;5.53;3.13;;;27.00;90.50;;;;;;5006050;28;20057;-71
2022/08/01 10:59:26;;;;;;;3.58;2.70;;;27.00;90.30;;;;;;5008683;28;20049;-70
2022/08/01 11:01:59;;;;;;;3.92;2.70;;;27.20;90.90;;;;;;5002347;28;20037;-72
2022/08/01 11:04:41;;;;;;;4.07;2.60;;;27.60;91.10;;;;;;5008969;28;20055;-71
2022/08/01 11:07:13;;;;;;;5.00;3.05;;;27.70;87.10;;;;;;5004630;28;20048;-70
2022/08/01 11:09:45;;;;;;;10.93;3.03;;;27.10;88.40;;;;;;5012174;28;20052;-74
2022/08/01 11:12:16;;;;;;;3.97;2.90;;;27.00;89.30;;;;;;5001379;28;20041;-73
2022/08/01 11:15:00;;;;;;;5.65;3.00;;;27.20;91.40;;;;;;5010519;28;20053;-70
2022/08/01 11:17:49;;;;;;;6.40;2.92;;;27.10;87.20;;;;;;5003672;28;20060;-70
2022/08/01 11:20:16;;;;;;;4.45;3.30;;;26.70;87.30;;;;;;4992146;28;20058;-71
2022/08/01 11:23:00;;;;;;;5.13;3.40;;;26.40;90.40;;;;;;4991985;28;20044;-71
2022/08/01 11:25:47;;;;;;;8.70;3.20;;;26.00;90.00;;;;;;5016186;28;20515;-74
2022/08/01 11:28:16;;;;;;;6.10;3.13;;;25.80;90.70;;;;;;4987401;28;20664;-72
2022/08/01 11:30:46;;;;;;;8.02;3.95;;;25.70;90.50;;;;;;5016473;28;20042;-72
2022/08/01 11:33:13;;;;;;;5.38;3.50;;;25.70;90.60;;;;;;5000267;28;20048;-70
2022/08/01 11:36:15;;;;;;;6.97;3.55;;;25.90;90.30;;;;;;5025690;28;20080;-73
2022/08/01 11:38:57;;;;;;;5.88;3.83;;;25.90;89.60;;;;;;5028050;28;20040;-72
2022/08/01 11:41:25;;;;;;;7.18;3.83;;;25.90;89.90;;;;;;5027539;28;20059;-70
2022/08/01 11:43:59;;;;;;;5.15;4.13;;;25.90;89.80;;;;;;5025856;28;20033;-71
2022/08/01 11:46:50;;;;;;;5.63;3.72;;;26.00;91.00;;;;;;5023792;28;20049;-73
2022/08/01 11:49:40;;;;;;;6.38;3.70;;;26.10;90.10;;;;;;5029171;28;20117;-73
2022/08/01 11:52:11;;;;;;;5.68;3.85;;;26.20;88.30;;;;;;5028495;28;20033;-73
2022/08/01 11:54:40;;;;;;;6.25;3.72;;;26.70;88.70;;;;;;5029392;28;20116;-76
2022/08/01 11:57:08;;;;;;;8.07;3.77;;;27.00;88.00;;;;;;5028763;28;20030;-71
2022/08/01 11:59:40;;;;;;;5.75;3.63;;;27.70;90.40;;;;;;5029396;28;20029;-72
2022/08/01 12:02:26;;;;;;;12.95;3.20;;;28.40;85.60;;;;;;5028636;28;20806;-73
2022/08/01 12:04:59;;;;;;;6.55;3.67;;;28.80;83.70;;;;;;5028365;28;20045;-69
2022/08/01 12:07:27;;;;;;;7.85;3.90;;;28.80;81.50;;;;;;5029523;28;20148;-71
2022/08/01 12:10:04;;;;;;;6.57;3.72;;;28.70;82.90;;;;;;5029019;28;20029;-71
2022/08/01 12:12:31;;;;;;;7.07;3.40;;;28.70;83.80;;;;;;5028972;28;20052;-73
2022/08/01 12:15:00;;;;;;;6.82;3.50;;;28.60;81.70;;;;;;5028108;28;20135;-71
2022/08/01 12:17:34;;;;;;;4.68;3.33;;;28.00;81.50;;;;;;5029245;28;20504;-71
2022/08/01 12:20:00;;;;;;;5.15;3.35;;;27.80;82.70;;;;;;5027728;28;20531;-70
2022/08/01 12:22:26;;;;;;;5.68;3.55;;;27.80;85.10;;;;;;5024519;28;20044;-72
2022/08/01 12:24:52;;;;;;;8.05;4.38;;;28.10;84.80;;;;;;5027502;28;20038;-71
2022/08/01 12:27:26;;;;;;;5.53;4.18;;;28.50;83.30;;;;;;5025876;28;20033;-70
2022/08/01 12:29:51;;;;;;;4.75;3.85;;;28.70;80.50;;;;;;5024583;28;20368;-70
2022/08/01 12:32:22;;;;;;;8.32;3.47;;;29.00;83.10;;;;;;5027029;28;20087;-72
2022/08/01 12:34:49;;;;;;;4.75;3.42;;;28.60;78.70;;;;;;5026470;28;20505;-73
2022/08/01 12:37:15;;;;;;;4.90;3.53;;;28.30;79.50;;;;;;5026532;28;20083;-73
2022/08/01 12:39:41;;;;;;;6.78;3.05;;;27.90;81.80;;;;;;5028279;28;20034;-71
2022/08/01 12:42:10;;;;;;;3.58;3.10;;;27.80;79.80;;;;;;5026556;28;20067;-72
2022/08/01 12:44:36;;;;;;;5.15;2.92;;;27.70;82.10;;;;;;5027788;28;20032;-74
2022/08/01 12:47:05;;;;;;;3.70;2.80;;;27.90;79.50;;;;;;5025850;28;20034;-73
2022/08/01 12:49:38;;;;;;;3.67;2.70;;;28.20;77.40;;;;;;5025923;28;20037;-70
2022/08/01 12:52:05;;;;;;;6.00;2.53;;;28.40;77.60;;;;;;5008409;28;20034;-72
2022/08/01 12:54:31;;;;;;;4.40;3.05;;;28.20;77.60;;;;;;5016254;28;20025;-71